ADDS METAR Data INFO
IDs: Format: Raw Decoded Include TAF

Data at: 1810 UTC 18 Feb 2018

KIDP 181755Z AUTO 18023G27KT 10SM OVC026 09/03 A3000 RMK AO2 T00910027 10098 20024
KIDP 181735Z AUTO 18022G28KT 10SM BKN028 09/02 A3002 RMK AO2 T00930023
KIDP 181715Z AUTO 18023G30KT 10SM SCT028 09/02 A3004 RMK AO2 T00920019
KIDP 181655Z AUTO 18019G27KT 10SM CLR 09/02 A3004 RMK AO2 T00890018
KIDP 181635Z AUTO 17019G25KT 10SM CLR 08/01 A3005 RMK AO2 T00790012
KIDP 181615Z AUTO 17024G29KT 10SM CLR 08/01 A3005 RMK AO2 T00780013
KIDP 181555Z AUTO 17017G24KT 10SM CLR 07/01 A3007 RMK AO2 T00670012
KIDP 181535Z AUTO 17019G22KT 10SM CLR 06/01 A3007 RMK AO2 T00620011
KIDP 181515Z AUTO 17019KT 10SM CLR 06/01 A3008 RMK AO2 T00570011
KIDP 181455Z AUTO 18018G26KT 10SM CLR 05/01 A3009 RMK AO2 T00550011
KIDP 181435Z AUTO 17017G23KT 10SM CLR 05/02 A3010 RMK AO2
KIDP 181415Z AUTO 17017KT 10SM CLR 04/01 A3010 RMK AO2 T00440009
KIDP 181355Z AUTO 17013KT 10SM CLR 04/01 A3010 RMK AO2 T00450007
KIDP 181335Z AUTO 16013KT 10SM CLR 04/00 A3010 RMK AO2 T00390002
KIDP 181315Z AUTO 16010KT 10SM CLR 03/00 A3010 RMK AO2 T00260001
KIDP 181255Z AUTO 15009KT 10SM CLR 03/00 A3011 RMK AO2 T00270003
KIDP 181235Z AUTO 16011KT 10SM CLR 03/01 A3011 RMK AO2 T00280006
KIDP 181215Z AUTO 16010KT 10SM CLR 03/01 A3012 RMK AO2 T00260009
KIDP 181155Z AUTO 16010KT 10SM CLR 02/01 A3012 RMK AO2 T00250010 10028 21009 70001
KIDP 181135Z AUTO 15012KT 10SM CLR 02/01 A3012 RMK AO2 T00250013
KIDP 181115Z AUTO 16012KT 10SM CLR 02/01 A3013 RMK AO2 T00240014
KIDP 181055Z AUTO 16006KT 7SM CLR 01/01 A3013 RMK AO2 T00120006
KIDP 181035Z AUTO 16007KT 7SM BR CLR 00/00 A3014 RMK AO2 T00051002
KIDP 181015Z AUTO 16007KT 7SM BR CLR 01/01 A3015 RMK AO2 T00130006
KIDP 180955Z AUTO 16008KT 7SM BR CLR 01/00 A3016 RMK AO2 T00080001
KIDP 180935Z AUTO 17008KT 7SM CLR 01/01 A3016 RMK AO2 T00140008
KIDP 180915Z AUTO 17009KT 7SM CLR 01/00 A3016 RMK AO2 T00110005
KIDP 180855Z AUTO 16006KT 10SM CLR 01/01 A3017 RMK AO2 T00150007
KIDP 180835Z AUTO 16008KT 10SM CLR 01/00 A3017 RMK AO2 T00110001
KIDP 180815Z AUTO 16007KT 10SM CLR 01/00 A3018 RMK AO2 T00150002
KIDP 180755Z AUTO 16006KT 10SM CLR 01/00 A3019 RMK AO2 T00120001
KIDP 180735Z AUTO 17007KT 10SM CLR 01/M01 A3019 RMK AO2 T00061008
KIDP 180715Z AUTO 16006KT 10SM CLR 01/M01 A3019 RMK AO2 T00101010
KIDP 180655Z AUTO 16006KT 10SM CLR 01/M02 A3020 RMK AO2 T00081018
KIDP 180635Z AUTO 17004KT 10SM CLR 01/M02 A3020 RMK AO2 T00081024
KIDP 180615Z AUTO 16005KT 10SM CLR 00/M03 A3020 RMK AO2 T00011032
KIDP 180555Z AUTO 16005KT 10SM CLR M01/M03 A3020 RMK AO2 T10101034 10116 21017
KIDP 180535Z AUTO 17005KT 10SM CLR M01/M04 A3020 RMK AO2 T10151037
KIDP 180515Z AUTO 22004KT 10SM CLR M01/M04 A3020 RMK AO2 T10101041
KIDP 180455Z AUTO 00000KT 10SM CLR 00/M04 A3020 RMK AO2 T10031040
KIDP 180435Z AUTO 00000KT 10SM CLR 00/M04 A3020 RMK AO2 T10001042
KIDP 180415Z AUTO 00000KT 10SM CLR 00/M04 A3020 RMK AO2 T10011042
KIDP 180355Z AUTO 16004KT 10SM CLR 03/M04 A3019 RMK AO2 T00291044
KIDP 180335Z AUTO 11003KT 10SM CLR 01/M04 A3020 RMK AO2 T00141039
KIDP 180315Z AUTO 13003KT 10SM CLR 03/M04 A3020 RMK AO2 T00301041
KIDP 180255Z AUTO 00000KT 10SM CLR 02/M04 A3020 RMK AO2 T00201040
KIDP 180235Z AUTO 00000KT 10SM CLR 03/M04 A3020 RMK AO2 T00291037
KIDP 180215Z AUTO 22003KT 10SM CLR 03/M04 A3020 RMK AO2 T00311041
KIDP 180155Z AUTO 00000KT 10SM CLR 06/M04 A3019 RMK AO2 T00611044
KIDP 180135Z AUTO 00000KT 10SM CLR 05/M03 A3018 RMK AO2 T00491035
KIDP 180115Z AUTO 00000KT 10SM CLR 07/M04 A3018 RMK AO2 T00741040
KIDP 180055Z AUTO 00000KT 10SM CLR 09/M06 A3018 RMK AO2 T00901057
KIDP 180035Z AUTO 00000KT 10SM CLR 10/M05 A3018 RMK AO2 T00971049
KIDP 180015Z AUTO 00000KT 10SM CLR 09/M05 A3016 RMK AO2 T00941055
KIDP 172355Z AUTO 03005KT 10SM CLR 10/M06 A3015 RMK AO2 T01051056 10162 20092 401620013
KIDP 172335Z AUTO 35008KT 10SM CLR 12/M05 A3015 RMK AO2 T01161047
KIDP 172315Z AUTO 35007KT 10SM CLR 14/M06 A3014 RMK AO2 T01361060
KIDP 172255Z AUTO 35012KT 10SM CLR 14/M06 A3014 RMK AO2 T01451063
KIDP 172235Z AUTO 35013KT 10SM CLR 15/M07 A3014 RMK AO2 T01491070
KIDP 172215Z AUTO 35014G18KT 10SM CLR 15/M05 A3013 RMK AO2 T01551052
KIDP 172155Z AUTO 35016G19KT 10SM CLR 16/M05 A3012 RMK AO2 T01561050
KIDP 172135Z AUTO 35017KT 10SM CLR 16/M05 A3011 RMK AO2 T01581046
KIDP 172115Z AUTO 01016KT 10SM CLR 16/M03 A3011 RMK AO2 T01591032
KIDP 172055Z AUTO 34009KT 10SM CLR 15/00 A3011 RMK AO2 T01520002
KIDP 172035Z AUTO 36007KT 10SM CLR 15/00 A3011 RMK AO2 T01470003
KIDP 172015Z AUTO 34011KT 10SM CLR 14/02 A3011 RMK AO2 T01430017
KIDP 171955Z AUTO 29010KT 10SM CLR 13/02 A3010 RMK AO2 T01330017
KIDP 171935Z AUTO 31008KT 10SM CLR 13/02 A3010 RMK AO2 T01260019
KIDP 171915Z AUTO 31007KT 10SM CLR 12/02 A3011 RMK AO2 T01210024
KIDP 171855Z AUTO 29008KT 10SM CLR 11/03 A3011 RMK AO2 T01130028
KIDP 171835Z AUTO 30007KT 10SM CLR 11/03 A3011 RMK AO2 T01080033
KIDP 171815Z AUTO 30006KT 10SM CLR 10/04 A3011 RMK AO2 T01010043
KIDP 171755Z AUTO 28009KT 10SM SCT018 09/04 A3011 RMK AO2 T00920039 10093 20018 60001
KIDP 171735Z AUTO 27011KT 10SM BKN016 08/04 A3011 RMK AO2 T00820042
KIDP 171715Z AUTO 27011KT 10SM BKN014 BKN019 07/04 A3010 RMK AO2 T00690036
KIDP 171655Z AUTO 24008KT 10SM OVC012 07/04 A3009 RMK AO2 T00670040
KIDP 171635Z AUTO 25011KT 10SM OVC010 05/03 A3010 RMK AO2 T00520028
KIDP 171615Z AUTO 25010KT 10SM OVC010 05/03 A3010 RMK AO2 T00480030
KIDP 171555Z AUTO 24011KT 10SM OVC008 04/03 A3010 RMK AO2 T00430027
KIDP 171535Z AUTO 24009KT 10SM OVC008 04/02 A3009 RMK AO2 T00380025
KIDP 171515Z AUTO 24010KT 10SM BKN008 03/02 A3008 RMK AO2 T00320020
KIDP 171455Z AUTO 24008KT 10SM SCT008 SCT012 SCT041 03/02 A3007 RMK AO2 T00300019 60001
KIDP 171435Z AUTO 21007KT 10SM BKN012 BKN041 03/02 A3005 RMK AO2 T00290020
KIDP 171415Z AUTO 20006KT 10SM OVC012 03/02 A3004 RMK AO2 T00260018
KIDP 171355Z AUTO 19007KT 170V310 10SM OVC012 02/01 A3004 RMK AO2 T00210015
KIDP 171335Z AUTO 19007KT 5SM BR SCT008 OVC014 02/02 A3004 RMK AO2 T00200016
KIDP 171315Z AUTO 21003KT 2SM -RA BR SCT006 OVC011 02/01 A3004 RMK AO2 T00190015
KIDP 171255Z AUTO 22003KT 3SM RA BR OVC011 02/01 A3002 RMK AO2 T00190014
KIDP 171235Z AUTO 25003KT 7SM OVC011 02/01 A3002 RMK AO2 T00200015
KIDP 171215Z AUTO 14004KT 10SM OVC011 02/01 A2999 RMK AO2 T00190014
KIDP 171155Z AUTO 00000KT 10SM OVC013 02/01 A3000 RMK AO2 T00180011 10028 20013 60015 70015
KIDP 171135Z AUTO 12007KT 10SM OVC013 02/01 A2998 RMK AO2 T00160011
KIDP 171115Z AUTO 00000KT 10SM OVC011 01/01 A3001 RMK AO2 T00150009
KIDP 171055Z AUTO 34004KT 10SM -RA OVC009 01/01 A3002 RMK AO2 P0003 T00150008
KIDP 171035Z AUTO 32007KT 7SM -RA SCT010 OVC015 02/01 A3003 RMK AO2 P0003 T00160009
KIDP 171015Z AUTO 10003KT 7SM -RA OVC017 01/01 A3002 RMK AO2 P0002 T00150006
KIDP 170955Z AUTO 00000KT 7SM RA BR OVC019 01/00 A3004 RMK AO2 P0004 T00140003
KIDP 170935Z AUTO 15004KT 7SM -RA OVC023 01/00 A3005 RMK AO2 P0002 T00140000
KIDP 170915Z AUTO 18003KT 10SM -RA OVC023 02/00 A3006 RMK AO2 P0001 T00151005
KIDP 170855Z AUTO 00000KT 10SM -RA OVC026 02/M01 A3007 RMK AO2 P0005 T00161013 60008
KIDP 170835Z AUTO 00000KT 10SM -RA BKN028 OVC036 01/M01 A3009 RMK AO2 P0004 T00151011
KIDP 170815Z AUTO 10003KT 5SM UP SCT036 BKN044 OVC075 01/M01 A3008 RMK AO2 P0002 T00151013
KIDP 170755Z AUTO 10003KT 5SM -SN SCT038 BKN046 OVC075 02/M02 A3009 RMK AO2 P0002 T00181021
KIDP 170735Z AUTO 13003KT 10SM RA OVC075 02/M03 A3010 RMK AO2 T00211031
KIDP 170715Z AUTO 12007KT 10SM -RA SCT075 OVC090 03/M05 A3009 RMK AO2 T00271050
KIDP 170655Z AUTO 11006KT 10SM OVC090 03/M05 A3011 RMK AO2 T00271053
KIDP 170635Z AUTO 11006KT 10SM OVC100 03/M05 A3013 RMK AO2 T00271053
KIDP 170615Z AUTO 10005KT 10SM BKN120 03/M05 A3014 RMK AO2 T00271053